createdAt,value
2023-03-02T00:01:29.303Z,8.52
2023-03-02T00:04:02.863Z,8.60
2023-03-02T00:06:34.138Z,8.07
2023-03-02T00:09:04.837Z,8.68
2023-03-02T00:11:35.780Z,7.68
2023-03-02T00:14:05.553Z,8.38
2023-03-02T00:16:35.439Z,8.57
2023-03-02T00:19:07.668Z,8.05
2023-03-02T00:21:37.294Z,7.38
2023-03-02T00:24:08.127Z,8.80
2023-03-02T00:26:38.303Z,7.95
2023-03-02T00:29:07.941Z,7.18
2023-03-02T00:31:38.064Z,8.50
2023-03-02T00:34:10.360Z,8.35
2023-03-02T00:36:40.512Z,7.72
2023-03-02T00:39:10.194Z,7.78
2023-03-02T00:41:39.896Z,8.23
2023-03-02T00:44:09.506Z,8.18
2023-03-02T00:46:39.138Z,8.18
2023-03-02T00:49:11.605Z,8.27
2023-03-02T00:51:41.220Z,8.38
2023-03-02T00:54:10.905Z,8.45
2023-03-02T00:56:40.590Z,8.43
2023-03-02T00:59:26.663Z,8.38
2023-03-02T01:02:09.730Z,8.45
2023-03-02T01:04:43.890Z,8.75
2023-03-02T01:07:15.549Z,7.60
2023-03-02T01:09:46.437Z,8.52
2023-03-02T01:12:16.057Z,7.60
2023-03-02T01:14:47.365Z,7.55
2023-03-02T01:17:18.172Z,8.80
2023-03-02T01:19:50.541Z,8.63
2023-03-02T01:22:20.650Z,8.30
2023-03-02T01:24:50.321Z,7.63
2023-03-02T01:27:19.900Z,7.90
2023-03-02T01:29:50.756Z,7.97
2023-03-02T01:32:20.398Z,7.38
2023-03-02T01:34:53.457Z,7.70
2023-03-02T01:37:23.400Z,8.02
2023-03-02T01:39:53.120Z,8.20
2023-03-02T01:42:22.800Z,8.10
2023-03-02T01:44:54.210Z,7.88
2023-03-02T01:47:26.188Z,7.55
2023-03-02T01:50:26.694Z,7.55
2023-03-02T01:53:00.525Z,7.32
2023-03-02T01:55:32.816Z,7.43
2023-03-02T01:58:03.421Z,7.63
2023-03-02T02:00:36.137Z,8.15
2023-03-02T02:03:11.488Z,8.52
2023-03-02T02:05:46.504Z,8.98
2023-03-02T02:08:16.652Z,8.35
2023-03-02T02:10:46.402Z,7.82
2023-03-02T02:13:16.072Z,8.25
2023-03-02T02:15:45.693Z,7.65
2023-03-02T02:18:15.306Z,8.20
2023-03-02T02:20:48.877Z,8.25
2023-03-02T02:23:29.064Z,8.60
2023-03-02T02:26:18.600Z,8.73
2023-03-02T02:28:57.790Z,8.02
2023-03-02T02:31:32.809Z,8.77
2023-03-02T02:34:05.847Z,9.20
2023-03-02T02:36:40.575Z,8.50
2023-03-02T02:39:19.283Z,8.48
2023-03-02T02:41:52.651Z,8.98
2023-03-02T02:44:22.528Z,9.73
2023-03-02T02:46:52.188Z,9.95
2023-03-02T02:49:30.766Z,8.88
2023-03-02T02:52:00.675Z,9.20
2023-03-02T02:54:31.751Z,8.93
2023-03-02T02:57:05.743Z,8.80
2023-03-02T02:59:39.993Z,9.68
2023-03-02T03:02:14.178Z,8.50
2023-03-02T03:04:43.903Z,8.95
2023-03-02T03:07:16.644Z,8.07
2023-03-02T03:09:46.456Z,9.05
2023-03-02T03:12:20.485Z,8.18
2023-03-02T03:14:50.691Z,9.00
2023-03-02T03:17:20.273Z,9.75
2023-03-02T03:20:06.671Z,9.07
2023-03-02T03:22:40.248Z,7.85
2023-03-02T03:25:15.623Z,9.15
2023-03-02T03:27:50.436Z,8.20
2023-03-02T03:30:22.296Z,8.98
2023-03-02T03:32:52.362Z,9.25
2023-03-02T03:35:22.342Z,9.35
2023-03-02T03:37:52.359Z,8.57
2023-03-02T03:40:22.957Z,9.05
2023-03-02T03:42:56.181Z,7.90
2023-03-02T03:45:26.056Z,8.70
2023-03-02T03:47:55.683Z,9.20
2023-03-02T03:50:25.386Z,8.35
2023-03-02T03:52:54.999Z,8.10
2023-03-02T03:55:30.199Z,8.32
2023-03-02T03:58:03.021Z,8.02
2023-03-02T04:00:33.132Z,8.05
2023-03-02T04:03:08.787Z,8.15
2023-03-02T04:05:38.600Z,8.40
2023-03-02T04:08:09.042Z,8.40
2023-03-02T04:10:39.712Z,7.45
2023-03-02T04:13:12.327Z,8.02
2023-03-02T04:15:43.957Z,8.43
2023-03-02T04:18:15.181Z,8.02
2023-03-02T04:20:44.865Z,7.70
2023-03-02T04:23:15.548Z,9.02
2023-03-02T04:25:45.592Z,8.48
2023-03-02T04:30:52.317Z,7.43
2023-03-02T04:33:21.931Z,8.23
2023-03-02T04:35:52.289Z,8.15
2023-03-02T04:38:21.874Z,8.43
2023-03-02T04:40:51.781Z,7.78
2023-03-02T04:43:23.991Z,7.90
2023-03-02T04:45:53.656Z,7.03
2023-03-02T04:48:24.375Z,8.70
2023-03-02T04:50:54.006Z,8.60
2023-03-02T04:53:23.621Z,8.05
2023-03-02T04:55:53.258Z,7.50
2023-03-02T04:58:25.430Z,7.95
2023-03-02T05:01:02.122Z,7.85
2023-03-02T05:03:31.752Z,7.80
2023-03-02T05:06:02.284Z,8.00
2023-03-02T05:08:31.940Z,7.78
2023-03-02T05:11:01.548Z,8.00
2023-03-02T05:13:33.725Z,7.85
2023-03-02T05:16:03.735Z,8.63
2023-03-02T05:18:33.336Z,7.30
2023-03-02T05:21:02.944Z,7.95
2023-03-02T05:23:32.526Z,9.02
2023-03-02T05:26:02.506Z,8.23
2023-03-02T05:28:35.070Z,8.57
2023-03-02T05:31:05.106Z,9.32
2023-03-02T05:33:34.736Z,9.70
2023-03-02T05:36:04.475Z,9.32
2023-03-02T05:38:34.598Z,7.80
2023-03-02T05:41:04.221Z,9.20
2023-03-02T05:43:36.432Z,8.55
2023-03-02T05:46:06.187Z,8.13
2023-03-02T05:48:35.818Z,8.23
2023-03-02T05:51:05.539Z,7.93
2023-03-02T05:53:35.122Z,8.82
2023-03-02T05:56:04.716Z,8.68
2023-03-02T05:58:36.903Z,7.82
2023-03-02T06:01:12.256Z,8.48
2023-03-02T06:03:44.551Z,8.63
2023-03-02T06:06:15.130Z,8.68
2023-03-02T06:08:45.263Z,8.38
2023-03-02T06:11:14.887Z,8.68
2023-03-02T06:13:47.165Z,8.70
2023-03-02T06:16:16.936Z,8.40
2023-03-02T06:18:46.853Z,8.00
2023-03-02T06:21:17.112Z,8.55
2023-03-02T06:23:46.707Z,9.80
2023-03-02T06:26:16.719Z,9.25
2023-03-02T06:28:53.301Z,9.30
2023-03-02T06:31:23.566Z,8.75
2023-03-02T06:33:53.495Z,8.45
2023-03-02T06:36:23.321Z,8.68
2023-03-02T06:38:53.393Z,9.38
2023-03-02T06:41:23.363Z,9.25
2023-03-02T06:43:55.542Z,9.27
2023-03-02T06:46:25.141Z,8.43
2023-03-02T06:48:54.884Z,8.70
2023-03-02T06:51:24.524Z,8.80
2023-03-02T06:53:54.140Z,9.10
2023-03-02T06:56:23.848Z,8.35
2023-03-02T06:58:56.021Z,8.85
2023-03-02T07:01:25.702Z,9.25
2023-03-02T07:03:55.361Z,9.25
2023-03-02T07:06:24.978Z,9.77
2023-03-02T07:08:54.610Z,8.90
2023-03-02T07:11:24.386Z,8.25
2023-03-02T07:13:56.841Z,9.75
2023-03-02T07:16:26.481Z,8.52
2023-03-02T07:18:56.166Z,11.10
2023-03-02T07:21:25.753Z,9.32
2023-03-02T07:23:55.363Z,8.57
2023-03-02T07:26:24.924Z,8.00
2023-03-02T07:28:59.383Z,8.07
2023-03-02T07:31:29.160Z,8.43
2023-03-02T07:33:58.817Z,8.32
2023-03-02T07:36:28.987Z,8.68
2023-03-02T07:38:58.560Z,8.00
2023-03-02T07:41:28.123Z,8.50
2023-03-02T07:44:01.111Z,9.07
2023-03-02T07:46:30.859Z,9.00
2023-03-02T07:49:01.100Z,7.93
2023-03-02T07:51:30.905Z,7.90
2023-03-02T07:54:02.874Z,7.78
2023-03-02T07:56:32.569Z,7.72
2023-03-02T07:59:04.810Z,7.50
2023-03-02T08:01:34.786Z,7.50
2023-03-02T08:04:04.602Z,12.02
2023-03-02T08:06:34.166Z,7.88
2023-03-02T08:09:04.881Z,9.07
2023-03-02T08:11:35.182Z,7.43
2023-03-02T08:14:07.577Z,7.85
2023-03-02T08:16:37.448Z,7.97
2023-03-02T08:19:07.134Z,7.63
2023-03-02T08:21:36.762Z,8.25
2023-03-02T08:24:06.884Z,7.65
2023-03-02T08:26:36.450Z,7.50
2023-03-02T08:29:09.372Z,7.40
2023-03-02T08:31:39.186Z,7.93
2023-03-02T08:34:08.791Z,7.40
2023-03-02T08:36:38.386Z,7.13
2023-03-02T08:39:08.006Z,7.43
2023-03-02T08:41:37.611Z,7.80
2023-03-02T08:44:10.052Z,7.53
2023-03-02T08:46:39.638Z,7.38
2023-03-02T08:49:09.275Z,7.47
2023-03-02T08:51:39.002Z,7.57
2023-03-02T08:54:08.678Z,7.43
2023-03-02T08:56:40.263Z,7.45
2023-03-02T08:59:15.085Z,7.28
2023-03-02T09:01:44.898Z,7.45
2023-03-02T09:04:14.599Z,7.13
2023-03-02T09:06:47.454Z,6.95
2023-03-02T09:09:17.858Z,7.55
2023-03-02T09:11:47.831Z,7.38
2023-03-02T09:14:20.021Z,7.03
2023-03-02T09:16:49.677Z,7.60
2023-03-02T09:19:19.242Z,7.18
2023-03-02T09:21:49.879Z,6.88
2023-03-02T09:24:19.487Z,7.20
2023-03-02T09:26:49.081Z,7.10
2023-03-02T09:29:21.236Z,7.55
2023-03-02T09:31:50.867Z,7.22
2023-03-02T09:34:20.546Z,7.03
2023-03-02T09:36:50.242Z,6.90
2023-03-02T09:39:19.785Z,6.63
2023-03-02T09:42:14.602Z,6.88
2023-03-02T09:45:18.963Z,6.95
2023-03-02T09:47:55.330Z,7.05
2023-03-02T09:50:30.447Z,7.13
2023-03-02T09:53:12.258Z,6.80
2023-03-02T09:55:41.908Z,7.00
2023-03-02T09:58:17.853Z,7.40
2023-03-02T10:00:50.639Z,7.25
2023-03-02T10:03:22.594Z,6.60
2023-03-02T10:05:54.080Z,6.63
2023-03-02T10:08:25.988Z,6.78
2023-03-02T10:11:01.568Z,6.60
2023-03-02T10:13:32.520Z,6.93
2023-03-02T10:16:18.251Z,7.22
2023-03-02T10:18:50.229Z,7.18
2023-03-02T10:21:24.972Z,6.68
2023-03-02T10:23:59.096Z,7.22
2023-03-02T10:26:34.657Z,7.60
2023-03-02T10:29:14.477Z,7.45
2023-03-02T10:31:49.706Z,7.40
2023-03-02T10:34:19.555Z,6.53
2023-03-02T10:36:49.803Z,7.57
2023-03-02T10:39:20.484Z,7.65
2023-03-02T10:41:53.756Z,7.50
2023-03-02T10:44:26.027Z,7.20
2023-03-02T10:46:59.257Z,6.88
2023-03-02T10:49:31.217Z,7.67
2023-03-02T10:52:03.383Z,7.05
2023-03-02T10:54:34.063Z,7.60
2023-03-02T10:57:05.953Z,7.95
2023-03-02T10:59:47.054Z,7.72
2023-03-02T11:02:23.496Z,7.97
2023-03-02T11:04:57.992Z,8.00
2023-03-02T11:07:29.006Z,8.32
2023-03-02T11:10:03.183Z,8.00
2023-03-02T11:15:19.749Z,7.68
2023-03-02T11:17:54.509Z,7.55
2023-03-02T11:20:28.378Z,7.25
2023-03-02T11:23:06.763Z,7.60
2023-03-02T11:25:40.190Z,7.75
2023-03-02T11:28:17.162Z,7.32
2023-03-02T11:30:50.310Z,7.45
2023-03-02T11:33:25.060Z,8.05
2023-03-02T11:35:58.266Z,7.38
2023-03-02T11:38:30.746Z,7.30
2023-03-02T11:41:03.160Z,7.63
2023-03-02T11:43:33.116Z,7.90
2023-03-02T11:46:14.020Z,7.97
2023-03-02T11:48:54.569Z,7.00
2023-03-02T11:51:25.777Z,7.30
2023-03-02T11:53:59.336Z,7.70
2023-03-02T11:56:31.361Z,7.40
2023-03-02T11:59:04.722Z,6.68
2023-03-02T12:01:38.018Z,7.50
2023-03-02T12:04:27.314Z,7.03
2023-03-02T12:06:57.230Z,7.00
2023-03-02T12:09:37.175Z,7.75
2023-03-02T12:12:35.381Z,6.68
2023-03-02T12:15:05.586Z,6.93
2023-03-02T12:17:36.923Z,7.28
2023-03-02T12:20:27.060Z,6.80
2023-03-02T12:22:57.318Z,7.50
2023-03-02T12:25:32.051Z,7.03
2023-03-02T12:28:01.632Z,6.95
2023-03-02T12:30:31.715Z,6.95
2023-03-02T12:33:04.714Z,7.50
2023-03-02T12:35:37.808Z,6.20
2023-03-02T12:38:09.196Z,7.55
2023-03-02T12:40:48.200Z,6.63
2023-03-02T12:43:30.795Z,6.95
2023-03-02T12:46:28.601Z,6.93
2023-03-02T12:49:17.547Z,6.97
2023-03-02T12:51:54.191Z,7.32
2023-03-02T12:54:25.587Z,6.03
2023-03-02T12:57:08.792Z,5.97
2023-03-02T12:59:39.378Z,7.05
2023-03-02T13:02:17.211Z,6.78
2023-03-02T13:04:47.251Z,6.47
2023-03-02T13:07:22.614Z,6.75
2023-03-02T13:09:57.231Z,7.20
2023-03-02T13:12:29.588Z,6.28
2023-03-02T13:15:01.238Z,6.10
2023-03-02T13:17:32.841Z,6.15
2023-03-02T13:20:03.592Z,6.25
2023-03-02T13:22:35.897Z,6.00
2023-03-02T13:25:08.301Z,6.35
2023-03-02T13:27:37.908Z,5.40
2023-03-02T13:30:24.913Z,6.25
2023-03-02T13:32:54.692Z,5.65
2023-03-02T13:35:26.727Z,6.07
2023-03-02T13:38:04.606Z,6.22
2023-03-02T13:40:40.031Z,5.18
2023-03-02T13:43:23.735Z,6.10
2023-03-02T13:45:57.793Z,5.75
2023-03-02T13:50:59.416Z,5.10
2023-03-02T13:53:38.254Z,5.72
2023-03-02T13:56:08.566Z,5.57
2023-03-02T13:58:41.040Z,6.07
2023-03-02T14:01:10.819Z,5.65
2023-03-02T14:03:40.567Z,5.80
2023-03-02T14:06:11.142Z,5.85
2023-03-02T14:08:43.409Z,5.60
2023-03-02T14:11:13.814Z,5.03
2023-03-02T14:13:45.222Z,5.35
2023-03-02T14:16:15.503Z,5.40
2023-03-02T14:18:47.560Z,5.28
2023-03-02T14:21:19.019Z,5.20
2023-03-02T14:23:52.655Z,5.20
2023-03-02T14:26:30.640Z,5.53
2023-03-02T14:29:05.692Z,4.90
2023-03-02T14:31:36.153Z,4.97
2023-03-02T14:34:05.974Z,4.43
2023-03-02T14:36:37.065Z,5.38
2023-03-02T14:39:14.076Z,5.25
2023-03-02T14:41:52.932Z,5.10
2023-03-02T14:44:24.079Z,5.60
2023-03-02T14:46:53.682Z,4.78
2023-03-02T14:49:23.368Z,4.97
2023-03-02T14:51:58.785Z,5.10
2023-03-02T14:54:34.362Z,4.82
2023-03-02T14:57:06.267Z,4.78
2023-03-02T14:59:35.851Z,4.45
2023-03-02T15:02:15.859Z,4.72
2023-03-02T15:04:56.599Z,4.60
2023-03-02T15:07:27.308Z,5.03
2023-03-02T15:10:00.366Z,4.32
2023-03-02T15:12:29.991Z,4.95
2023-03-02T15:14:59.659Z,4.38
2023-03-02T15:17:29.522Z,4.10
2023-03-02T15:19:59.141Z,4.57
2023-03-02T15:22:28.731Z,4.47
2023-03-02T15:25:00.954Z,4.45
2023-03-02T15:27:30.525Z,4.93
2023-03-02T15:30:00.107Z,4.20
2023-03-02T15:32:29.770Z,4.22
2023-03-02T15:34:59.394Z,4.00
2023-03-02T15:37:28.979Z,5.07
2023-03-02T15:40:01.257Z,4.38
2023-03-02T15:42:30.872Z,4.28
2023-03-02T15:45:00.506Z,4.20
2023-03-02T15:47:30.092Z,4.40
2023-03-02T15:49:59.704Z,3.95
2023-03-02T15:52:29.351Z,3.85
2023-03-02T15:55:01.564Z,4.15
2023-03-02T15:57:31.182Z,4.40
2023-03-02T16:00:01.207Z,4.13
2023-03-02T16:02:30.967Z,4.20
2023-03-02T16:05:00.576Z,4.53
2023-03-02T16:07:30.267Z,4.45
2023-03-02T16:10:02.487Z,4.35
2023-03-02T16:12:32.056Z,4.75
2023-03-02T16:15:01.720Z,4.47
2023-03-02T16:17:31.404Z,5.25
2023-03-02T16:20:01.057Z,4.85
2023-03-02T16:22:30.693Z,4.75
2023-03-02T16:25:02.881Z,5.07
2023-03-02T16:27:33.080Z,5.72
2023-03-02T16:30:02.640Z,4.53
2023-03-02T16:32:34.074Z,4.95
2023-03-02T16:35:03.672Z,5.00
2023-03-02T16:37:33.323Z,4.75
2023-03-02T16:40:05.502Z,5.03
2023-03-02T16:42:35.138Z,5.32
2023-03-02T16:45:04.967Z,5.10
2023-03-02T16:47:34.586Z,5.10
2023-03-02T16:50:05.189Z,5.00
2023-03-02T16:52:34.951Z,4.80
2023-03-02T16:55:10.621Z,5.03
2023-03-02T16:57:40.269Z,5.35
2023-03-02T17:00:13.980Z,5.78
2023-03-02T17:02:43.553Z,4.70
2023-03-02T17:05:14.233Z,4.40
2023-03-02T17:07:43.829Z,5.15
2023-03-02T17:10:19.673Z,5.20
2023-03-02T17:12:49.280Z,5.32
2023-03-02T17:15:19.144Z,5.10
2023-03-02T17:17:48.728Z,5.15
2023-03-02T17:20:18.869Z,5.80
2023-03-02T17:22:48.512Z,5.38
2023-03-02T17:25:21.047Z,5.40
2023-03-02T17:27:50.711Z,5.40
2023-03-02T17:30:20.950Z,5.53
2023-03-02T17:32:50.578Z,6.43
2023-03-02T17:35:20.164Z,5.75
2023-03-02T17:37:49.808Z,6.25
2023-03-02T17:40:22.325Z,5.47
2023-03-02T17:42:54.537Z,6.00
2023-03-02T17:45:28.072Z,6.15
2023-03-02T17:48:01.371Z,7.28
2023-03-02T17:50:31.873Z,7.13
2023-03-02T17:53:02.278Z,7.55
2023-03-02T17:55:34.583Z,8.50
2023-03-02T17:58:04.272Z,8.73
2023-03-02T18:00:34.008Z,7.85
2023-03-02T18:03:03.688Z,9.75
2023-03-02T18:05:33.371Z,10.85
2023-03-02T18:08:02.968Z,10.60
2023-03-02T18:10:35.162Z,10.65
2023-03-02T18:13:04.748Z,7.88
2023-03-02T18:15:34.551Z,11.23
2023-03-02T18:18:04.285Z,11.02
2023-03-02T18:20:34.376Z,11.13
2023-03-02T18:23:04.342Z,10.98
2023-03-02T18:25:36.686Z,11.65
2023-03-02T18:28:06.327Z,9.73
2023-03-02T18:30:36.000Z,10.27
2023-03-02T18:33:05.653Z,12.05
2023-03-02T18:35:35.297Z,9.95
2023-03-02T18:38:05.090Z,12.35
2023-03-02T18:40:37.442Z,10.57
2023-03-02T18:43:07.076Z,11.15
2023-03-02T18:45:36.962Z,13.50
2023-03-02T18:48:07.400Z,12.43
2023-03-02T18:50:37.111Z,12.82
2023-03-02T18:53:08.687Z,12.75
2023-03-02T18:55:41.030Z,12.55
2023-03-02T18:58:11.063Z,13.68
2023-03-02T19:00:41.358Z,13.10
2023-03-02T19:03:11.027Z,13.80
2023-03-02T19:05:40.843Z,14.85
2023-03-02T19:08:10.805Z,14.20
2023-03-02T19:10:43.294Z,15.20
2023-03-02T19:13:13.336Z,14.75
2023-03-02T19:15:43.308Z,11.90
2023-03-02T19:18:16.218Z,14.32
2023-03-02T19:20:46.133Z,14.20
2023-03-02T19:23:16.114Z,14.30
2023-03-02T19:25:48.529Z,15.45
2023-03-02T19:28:18.147Z,15.20
2023-03-02T19:30:47.720Z,16.10
2023-03-02T19:33:17.357Z,15.10
2023-03-02T19:35:47.263Z,16.45
2023-03-02T19:38:18.312Z,16.88
2023-03-02T19:40:50.534Z,15.60
2023-03-02T19:43:20.397Z,16.52
2023-03-02T19:45:50.039Z,16.67
2023-03-02T19:48:19.735Z,16.60
2023-03-02T19:50:49.559Z,16.30
2023-03-02T19:53:19.335Z,16.20
2023-03-02T19:55:52.699Z,15.73
2023-03-02T19:58:23.713Z,16.88
2023-03-02T20:00:53.404Z,15.50
2023-03-02T20:03:23.239Z,16.42
2023-03-02T20:05:53.351Z,16.92
2023-03-02T20:08:24.054Z,17.48
2023-03-02T20:10:56.334Z,15.90
2023-03-02T20:13:27.254Z,16.30
2023-03-02T20:15:56.944Z,17.90
2023-03-02T20:18:26.541Z,17.95
2023-03-02T20:20:56.230Z,17.42
2023-03-02T20:23:25.822Z,16.83
2023-03-02T20:25:58.417Z,17.80
2023-03-02T20:28:28.222Z,18.75
2023-03-02T20:30:59.373Z,17.73
2023-03-02T20:33:32.312Z,18.23
2023-03-02T20:36:03.179Z,17.85
2023-03-02T20:38:35.036Z,18.52
2023-03-02T20:41:07.972Z,19.67
2023-03-02T20:43:37.691Z,18.30
2023-03-02T20:46:08.390Z,17.80
2023-03-02T20:48:38.623Z,18.70
2023-03-02T20:51:08.514Z,19.48
2023-03-02T20:53:38.117Z,18.83
2023-03-02T20:56:11.358Z,17.33
2023-03-02T20:58:41.518Z,19.93
2023-03-02T21:01:11.260Z,19.17
2023-03-02T21:03:41.154Z,17.63
2023-03-02T21:06:11.043Z,20.05
2023-03-02T21:08:41.523Z,19.60
2023-03-02T21:11:16.322Z,19.35
2023-03-02T21:13:48.115Z,17.10
2023-03-02T21:16:23.009Z,19.35
2023-03-02T21:18:52.639Z,17.67
2023-03-02T21:21:32.517Z,19.13
2023-03-02T21:24:05.477Z,18.65
2023-03-02T21:26:37.805Z,19.98
2023-03-02T21:29:09.475Z,20.67
2023-03-02T21:31:39.429Z,18.45
2023-03-02T21:34:09.081Z,21.08
2023-03-02T21:36:39.157Z,19.92
2023-03-02T21:39:09.729Z,17.88
2023-03-02T21:41:42.137Z,20.35
2023-03-02T21:44:12.531Z,19.70
2023-03-02T21:46:42.283Z,19.52
2023-03-02T21:49:12.093Z,18.90
2023-03-02T21:51:41.771Z,20.20
2023-03-02T21:54:12.012Z,20.45
2023-03-02T21:56:44.563Z,20.80
2023-03-02T21:59:15.066Z,20.65
2023-03-02T22:01:44.812Z,21.77
2023-03-02T22:04:14.462Z,22.42
2023-03-02T22:06:44.104Z,22.35
2023-03-02T22:09:14.469Z,20.27
2023-03-02T22:11:47.636Z,21.73
2023-03-02T22:14:19.515Z,21.40
2023-03-02T22:16:49.998Z,22.77
2023-03-02T22:19:28.110Z,24.45
2023-03-02T22:21:59.957Z,24.73
2023-03-02T22:24:31.443Z,24.95
2023-03-02T22:27:13.408Z,20.05
2023-03-02T22:29:44.168Z,24.15
2023-03-02T22:32:18.235Z,24.35
2023-03-02T22:34:48.948Z,23.35
2023-03-02T22:37:20.444Z,22.17
2023-03-02T22:39:51.096Z,23.60
2023-03-02T22:42:25.266Z,23.42
2023-03-02T22:45:02.727Z,23.17
2023-03-02T22:47:32.337Z,25.05
2023-03-02T22:50:09.184Z,24.58
2023-03-02T22:52:43.865Z,24.60
2023-03-02T22:55:32.742Z,23.48
2023-03-02T22:58:20.845Z,25.98
2023-03-02T23:00:51.111Z,25.10
2023-03-02T23:03:21.856Z,24.92
2023-03-02T23:05:53.468Z,28.25
2023-03-02T23:08:25.807Z,23.15
2023-03-02T23:10:57.682Z,27.52
2023-03-02T23:13:41.783Z,24.90
2023-03-02T23:16:17.565Z,29.17
2023-03-02T23:18:47.969Z,23.50
2023-03-02T23:21:20.266Z,25.90
2023-03-02T23:23:50.225Z,29.48
2023-03-02T23:26:20.417Z,26.85
2023-03-02T23:28:53.827Z,25.88
2023-03-02T23:31:23.897Z,29.40
2023-03-02T23:33:53.518Z,27.73
2023-03-02T23:36:23.388Z,25.70
2023-03-02T23:38:53.275Z,28.85
2023-03-02T23:41:22.980Z,27.13
2023-03-02T23:43:55.202Z,29.60
2023-03-02T23:46:24.855Z,30.80
2023-03-02T23:48:56.147Z,32.90
2023-03-02T23:51:26.261Z,30.60
2023-03-02T23:53:56.310Z,29.77
2023-03-02T23:56:26.106Z,27.67
2023-03-02T23:58:58.518Z,26.83
